Flight Track Log - Related Links

Times and Time Zones

All times are in EDT time to prevent confusion due to time zone crossing. See the A6-EDY flight status page for this flight to view local times or setup timezone preferences in your user account.

Time Position Orientation Groundspeed Altitude Reporting Facility
EDT Latitude Longitude Course Direction KTS MPH feet Rate Location/Type
Wed 12:49:44 AM 25.2590 55.3600 304° West 150 173 100  Level FlightAware ADS-B
Wed 12:50:09 AM 25.2690 55.3430 303° West 166 191 600 1,286 Climbing FlightAware ADS-B
Wed 12:50:54 AM 25.2880 55.3090 302° West 177 204 1,600 1,200 Climbing FlightAware ADS-B
Wed 12:51:09 AM 25.2920 55.2960 289° West 192 221 1,800 900 Climbing FlightAware ADS-B
Wed 12:51:34 AM 25.2970 55.2680 281° West 230 265 2,200 1,309 Climbing FlightAware ADS-B
Wed 12:52:04 AM 25.3040 55.2320 282° West 262 302 3,000 873 Climbing FlightAware ADS-B
Wed 12:52:29 AM 25.3090 55.2030 281° West 262 302 3,000 2,533 Level FlightAware ADS-B
Wed 12:53:34 AM 25.3290 55.0870 281° West 328 377 6,800 3,180 Climbing FlightAware ADS-B
Wed 12:54:09 AM 25.3400 55.0280 282° West 342 394 8,300 2,625 Climbing FlightAware ADS-B
Wed 12:54:54 AM 25.3540 54.9460 281° West 353 406 10,300 2,400 Climbing FlightAware ADS-B
Wed 12:55:34 AM 25.3660 54.8760 281° West 368 423 11,700 2,400 Climbing FlightAware ADS-B
Wed 12:56:19 AM 25.3810 54.7900 281° West 369 425 13,700 2,471 Climbing FlightAware ADS-B
Wed 12:56:59 AM 25.3990 54.7160 285° West 377 434 15,200 2,325 Climbing FlightAware ADS-B
Wed 12:57:39 AM 25.4170 54.6430 285° West 381 438 16,800 2,259 Climbing FlightAware ADS-B
Wed 12:58:24 AM 25.4390 54.5550 285° West 388 447 18,400 1,976 Climbing FlightAware ADS-B
Wed 12:59:04 AM 25.4580 54.4770 285° West 396 456 19,600 1,694 Climbing FlightAware ADS-B
Wed 12:59:49 AM 25.4790 54.3900 285° West 409 471 20,800 1,624 Climbing FlightAware ADS-B
Wed 01:00:29 AM 25.4990 54.3080 285° West 417 480 21,900 1,765 Climbing FlightAware ADS-B
Wed 01:01:14 AM 25.5230 54.2100 285° West 427 491 23,300 1,906 Climbing FlightAware ADS-B
Wed 01:01:54 AM 25.5430 54.1260 285° West 429 494 24,600 1,800 Climbing FlightAware ADS-B
Wed 01:02:24 AM 25.5580 54.0650 285° West 432 497 25,400 1,714 Climbing FlightAware ADS-B
Wed 01:03:04 AM 25.5790 53.9760 285° West 434 499 26,600 2,250 Climbing FlightAware ADS-B
Wed 01:03:44 AM 25.5990 53.8940 285° West 415 478 28,400 2,175 Climbing FlightAware ADS-B
Wed 01:04:24 AM 25.6180 53.8140 285° West 414 476 29,500 1,624 Climbing FlightAware ADS-B
Wed 01:05:09 AM 25.6390 53.7280 285° West 413 475 30,700 1,725 Climbing FlightAware ADS-B
Wed 01:05:44 AM 25.6570 53.6510 285° West 413 475 31,800 1,500 Climbing FlightAware ADS-B
Wed 01:06:29 AM 25.6790 53.5610 285° West 406 467 32,700 1,400 Climbing FlightAware ADS-B
Wed 01:07:14 AM 25.7000 53.4710 285° West 406 467 33,900 1,000 Climbing FlightAware ADS-B
Wed 01:07:59 AM 25.7190 53.3840 284° West 406 467 34,200 1,271 Climbing FlightAware ADS-B
Wed 01:08:39 AM 25.7400 53.2990 285° West 399 459 35,700 864 Climbing FlightAware ADS-B
Wed 01:09:14 AM 25.7500 53.2330 280° West 36,000 212 Climbing FlightAware ADS-B
Wed 01:10:04 AM 25.7620 53.1270 277° West 419 482 36,000  Level FlightAware ADS-B
Wed 01:10:44 AM 25.7860 53.0380 287° West 421 484 36,000  Level FlightAware ADS-B
Wed 01:11:24 AM 25.8180 52.9640 296° West 420 483 36,000  Level FlightAware ADS-B
Wed 01:12:09 AM 25.8600 52.8770 298° West 418 481 36,000  Level FlightAware ADS-B
Wed 01:12:49 AM 25.8950 52.8030 298° West 419 482 36,000  Level FlightAware ADS-B
Wed 01:13:34 AM 25.9360 52.7190 299° West 420 483 36,000  Level FlightAware ADS-B
Wed 01:14:09 AM 25.9700 52.6460 297° West 422 486 36,000  Level FlightAware ADS-B
Wed 01:14:49 AM 26.0070 52.5690 298° West 424 488 36,000  Level FlightAware ADS-B
Wed 01:15:29 AM 26.0410 52.4980 298° West 421 484 36,000  Level FlightAware ADS-B
Wed 01:16:19 AM 26.0900 52.3960 298° West 424 488 36,000  Level FlightAware ADS-B
Wed 01:17:04 AM 26.1320 52.3070 298° West 424 488 36,000  Level FlightAware ADS-B
Wed 01:17:44 AM 26.1690 52.2290 298° West 423 487 36,000  Level FlightAware ADS-B
Wed 01:18:19 AM 26.2000 52.1640 298° West 425 489 36,000  Level FlightAware ADS-B
Wed 01:19:09 AM 26.2470 52.0650 298° West 426 490 36,000  Level FlightAware ADS-B
Wed 01:19:49 AM 26.2840 51.9870 298° West 424 488 36,000  Level FlightAware ADS-B
Wed 01:20:34 AM 26.3260 51.8960 297° West 429 494 36,000  Level FlightAware ADS-B
Wed 01:21:14 AM 26.3610 51.8230 298° West 429 494 36,000  Level FlightAware ADS-B
Wed 01:21:54 AM 26.3970 51.7440 297° West 429 494 36,000  Level FlightAware ADS-B
Wed 01:22:39 AM 26.4410 51.6510 298° West 428 493 36,000  Level FlightAware ADS-B
Wed 01:23:19 AM 26.4760 51.5750 297° West 427 491 36,000  Level FlightAware ADS-B
Wed 01:24:04 AM 26.5190 51.4840 298° West 429 494 36,000  Level FlightAware ADS-B
Wed 01:24:44 AM 26.5530 51.4090 297° West 430 495 36,000  Level FlightAware ADS-B
Wed 01:25:19 AM 26.5850 51.3410 298° West 430 495 36,000  Level FlightAware ADS-B
Wed 01:26:04 AM 26.6240 51.2510 296° West 426 490 36,000  Level FlightAware ADS-B
Wed 01:26:44 AM 26.6530 51.1760 293° West 422 486 36,000  Level FlightAware ADS-B
Wed 01:27:34 AM 26.6960 51.0660 294° West 419 482 36,000  Level FlightAware ADS-B
Wed 01:28:14 AM 26.7200 51.0000 292° West 419 482 36,000  Level FlightAware ADS-B
Wed 01:28:54 AM 26.7530 50.9170 294° West 419 482 36,000  Level FlightAware ADS-B
Wed 01:29:34 AM 26.7770 50.8490 292° West 419 482 36,000  Level FlightAware ADS-B
Wed 01:30:14 AM 26.8020 50.7800 292° West 419 482 36,000  Level FlightAware ADS-B
Wed 01:31:04 AM 26.8330 50.6950 292° West 419 482 36,000  Level FlightAware ADS-B
Wed 01:31:44 AM 26.8570 50.6260 291° West 419 482 36,000  Level FlightAware ADS-B
Wed 01:32:24 AM 26.8820 50.5580 292° West 419 482 36,000  Level FlightAware ADS-B
Wed 01:33:04 AM 26.9070 50.4890 292° West 419 482 36,000  Level FlightAware ADS-B
Wed 01:33:44 AM 26.9310 50.4210 292° West 419 482 36,000  Level FlightAware ADS-B
Wed 01:34:34 AM 26.9620 50.3350 292° West 419 482 36,000  Level FlightAware ADS-B
Wed 01:35:04 AM 26.9810 50.2840 293° West 419 482 36,000  Level FlightAware ADS-B
Wed 01:36:54 AM 27.2110 49.9890 311° West 459 528 36,000  Level FlightAware ADS-B
Wed 01:37:34 AM 27.2810 49.9330 325° Northwest 460 529 36,000  Level FlightAware ADS-B
Wed 01:38:19 AM 27.3620 49.8670 324° Northwest 459 528 36,000  Level FlightAware ADS-B
Wed 01:39:14 AM 27.4570 49.7900 324° Northwest 459 528 36,000  Level FlightAware ADS-B
Wed 01:39:44 AM 27.5080 49.7490 325° Northwest 459 528 36,000  Level FlightAware ADS-B
Wed 01:40:39 AM 27.6070 49.6670 324° Northwest 460 529 36,000  Level FlightAware ADS-B
Wed 01:41:19 AM 27.6650 49.6180 323° Northwest 460 529 36,000  Level FlightAware ADS-B
Wed 01:41:59 AM 27.7230 49.5680 323° Northwest 460 529 36,000  Level FlightAware ADS-B
Wed 01:42:39 AM 27.7800 49.5190 323° Northwest 460 529 36,000  Level FlightAware ADS-B
Wed 01:43:19 AM 27.8800 49.4440 326° Northwest 459 528 36,000  Level FlightAware ADS-B
Wed 01:44:09 AM 27.9550 49.3840 325° Northwest 470 541 36,000  Level FlightAware ADS-B
Wed 01:44:49 AM 28.0270 49.3330 328° Northwest 481 554 36,000  Level FlightAware ADS-B
Wed 01:45:39 AM 28.1230 49.2750 332° Northwest 478 550 36,000  Level FlightAware ADS-B
Wed 01:46:24 AM 28.2110 49.2210 332° Northwest 474 545 36,000  Level FlightAware ADS-B
Wed 01:47:09 AM 28.3070 49.1610 331° Northwest 473 544 36,000  Level FlightAware ADS-B
Wed 01:47:49 AM 28.3760 49.1180 331° Northwest 472 543 36,000  Level FlightAware ADS-B
Wed 01:48:29 AM 28.4560 49.0600 327° Northwest 465 535 36,000  Level FlightAware ADS-B
Wed 01:49:14 AM 28.5330 49.0010 326° Northwest 463 533 36,000  Level FlightAware ADS-B
Wed 01:49:49 AM 28.5980 48.9510 326° Northwest 463 533 36,000  Level FlightAware ADS-B
Wed 01:50:39 AM 28.6890 48.8820 326° Northwest 465 535 36,000  Level FlightAware ADS-B
Wed 01:51:19 AM 28.7540 48.8310 325° Northwest 466 536 36,000  Level FlightAware ADS-B
Wed 01:52:04 AM 28.8370 48.7670 326° Northwest 467 537 36,000  Level FlightAware ADS-B
Wed 01:52:44 AM 28.9100 48.7110 326° Northwest 467 537 36,000  Level FlightAware ADS-B
Wed 01:53:29 AM 28.9900 48.6500 326° Northwest 469 540 36,000  Level FlightAware ADS-B
Wed 01:54:09 AM 29.0670 48.5910 326° Northwest 468 539 36,000  Level FlightAware ADS-B
Wed 01:54:59 AM 29.1570 48.5210 326° Northwest 467 537 36,000  Level FlightAware ADS-B
Wed 01:55:39 AM 29.2260 48.4680 326° Northwest 467 537 36,000  Level FlightAware ADS-B
Wed 01:56:29 AM 29.3120 48.4020 326° Northwest 467 537 36,000  Level FlightAware ADS-B
Wed 01:57:09 AM 29.3880 48.3430 326° Northwest 466 536 36,000  Level FlightAware ADS-B
Wed 01:57:54 AM 29.4680 48.2840 327° Northwest 468 539 36,000  Level FlightAware ADS-B
Wed 01:58:29 AM 29.5250 48.2470 331° Northwest 468 539 36,000  Level FlightAware ADS-B
Wed 01:59:14 AM 29.6150 48.1880 330° Northwest 466 536 36,000  Level FlightAware ADS-B
Wed 01:59:59 AM 29.6960 48.1350 330° Northwest 464 534 36,000  Level FlightAware ADS-B
Wed 02:00:39 AM 29.7680 48.0870 330° Northwest 464 534 36,000  Level FlightAware ADS-B
Wed 02:01:14 AM 29.8330 48.0440 330° Northwest 459 528 36,000  Level FlightAware ADS-B
Wed 02:02:04 AM 29.9240 47.9830 330° Northwest 460 529 36,000  Level FlightAware ADS-B
Wed 02:02:44 AM 30.0000 47.9270 327° Northwest 457 526 36,000  Level FlightAware ADS-B
Wed 02:03:24 AM 30.0540 47.8720 319° Northwest 454 522 36,000  Level FlightAware ADS-B
Wed 02:04:19 AM 30.1330 47.7700 312° West 455 524 36,000  Level FlightAware ADS-B
Wed 02:05:04 AM 30.1940 47.6890 311° West 457 526 36,000  Level FlightAware ADS-B
Wed 02:05:39 AM 30.2370 47.6300 310° West 457 526 36,000  Level FlightAware ADS-B
Wed 02:06:24 AM 30.3030 47.5420 311° West 458 527 36,000  Level FlightAware ADS-B
Wed 02:07:04 AM 30.3680 47.4580 312° West 459 528 36,000  Level FlightAware ADS-B
Wed 02:07:49 AM 30.4230 47.3950 315° West 460 529 36,000  Level FlightAware ADS-B
Wed 02:08:29 AM 30.4740 47.3350 315° West 460 529 36,000  Level FlightAware ADS-B
Wed 02:09:19 AM 30.5800 47.2620 329° Northwest 451 519 36,000  Level FlightAware ADS-B
Wed 02:09:59 AM 30.6350 47.2100 321° Northwest 451 519 36,000  Level FlightAware ADS-B
Wed 02:10:39 AM 30.6900 47.1580 321° Northwest 451 519 36,000  Level FlightAware ADS-B
Wed 02:11:19 AM 30.7450 47.1060 321° Northwest 451 519 36,000  Level FlightAware ADS-B
Wed 02:12:04 AM 30.8450 47.0150 322° Northwest 452 520 36,000  Level FlightAware ADS-B
Wed 02:12:44 AM 30.9010 46.9630 321° Northwest 452 520 36,000  Level FlightAware ADS-B
Wed 02:13:24 AM 30.9560 46.9110 321° Northwest 452 520 36,000  Level FlightAware ADS-B
Wed 02:14:14 AM 31.0250 46.8460 321° Northwest 452 520 36,000  Level FlightAware ADS-B
Wed 02:14:54 AM 31.0800 46.7940 321° Northwest 452 520 36,000  Level FlightAware ADS-B
Wed 02:15:34 AM 31.1350 46.7410 320° Northwest 452 520 36,000  Level FlightAware ADS-B
Wed 02:16:14 AM 31.1910 46.6890 322° Northwest 452 520 36,000  Level FlightAware ADS-B
Wed 02:16:54 AM 31.2460 46.6370 321° Northwest 452 520 36,000  Level FlightAware ADS-B
Wed 02:17:34 AM 31.3010 46.5840 321° Northwest 452 520 36,000  Level FlightAware ADS-B
Wed 02:18:24 AM 31.3700 46.5190 321° Northwest 452 520 36,000  Level FlightAware ADS-B
Wed 02:19:04 AM 31.4260 46.4670 322° Northwest 452 520 36,000  Level FlightAware ADS-B
Wed 02:19:44 AM 31.4810 46.4140 321° Northwest 452 520 36,000  Level FlightAware ADS-B
Wed 02:20:24 AM 31.5360 46.3620 321° Northwest 452 520 36,000  Level FlightAware ADS-B
Wed 02:21:04 AM 31.5910 46.3090 321° Northwest 452 520 36,000  Level FlightAware ADS-B
Wed 02:23:00 AM 31.7313 46.1194 311° West  Level Estimated
Wed 02:24:00 AM 31.8037 46.0210 311° West  Level Estimated
Wed 02:25:00 AM 31.8760 45.9226 311° West  Level Estimated
Wed 02:26:00 AM 31.9483 45.8239 311° West  Level Estimated
Wed 02:27:00 AM 32.0205 45.7252 311° West  Level Estimated
Wed 02:28:00 AM 32.0927 45.6262 311° West  Level Estimated
Wed 02:29:00 AM 32.1647 45.5271 311° West  Level Estimated
Wed 02:30:00 AM 32.2367 45.4279 311° West  Level Estimated
Wed 02:31:00 AM 32.3086 45.3285 311° West  Level Estimated
Wed 02:31:59 AM 32.8420 45.1050 311° West 463 533 36,000  Level FlightAware ADS-B
Wed 02:32:00 AM 32.3804 45.2289 311° West  Level Estimated
Wed 02:32:39 AM 32.9110 45.0370 320° Northwest 463 533 36,000  Level FlightAware ADS-B
Wed 02:33:24 AM 32.9850 44.9640 320° Northwest 465 535 36,000  Level FlightAware ADS-B
Wed 02:34:04 AM 33.0480 44.9010 320° Northwest 464 534 36,000  Level FlightAware ADS-B
Wed 02:34:44 AM 33.1140 44.8360 320° Northwest 462 532 36,000  Level FlightAware ADS-B
Wed 02:35:29 AM 33.1940 44.7650 323° Northwest 469 540 36,000  Level FlightAware ADS-B
Wed 02:36:09 AM 33.2720 44.7170 333° Northwest 475 547 36,000 300 Level FlightAware ADS-B
Wed 02:36:49 AM 33.3570 44.6820 341° North 483 556 36,400 706 Climbing FlightAware ADS-B
Wed 02:37:34 AM 33.4510 44.6470 343° North 474 545 37,000 776 Climbing FlightAware ADS-B
Wed 02:38:14 AM 33.5340 44.6160 343° North 471 542 37,500 706 Climbing FlightAware ADS-B
Wed 02:38:59 AM 33.6260 44.5710 338° Northwest 467 537 38,000 353 Climbing FlightAware ADS-B
Wed 02:39:39 AM 33.7030 44.5340 338° Northwest 468 539 38,000  Level FlightAware ADS-B
Wed 02:40:19 AM 33.7850 44.4930 337° Northwest 469 540 38,000  Level FlightAware ADS-B
Wed 02:41:04 AM 33.8750 44.4490 338° Northwest 468 539 38,000  Level FlightAware ADS-B
Wed 02:41:49 AM 33.9590 44.4070 337° Northwest 468 539 38,000  Level FlightAware ADS-B
Wed 02:42:24 AM 34.0330 44.3710 338° Northwest 471 542 38,000  Level FlightAware ADS-B
Wed 02:43:09 AM 34.1280 44.3230 337° Northwest 474 545 38,000  Level FlightAware ADS-B
Wed 02:43:54 AM 34.2160 44.2800 338° Northwest 475 547 38,000  Level FlightAware ADS-B
Wed 02:44:34 AM 34.3030 44.2360 337° Northwest 477 549 38,000  Level FlightAware ADS-B
Wed 02:45:19 AM 34.3930 44.1920 338° Northwest 477 549 38,000  Level FlightAware ADS-B
Wed 02:45:59 AM 34.4760 44.1500 337° Northwest 479 551 38,000  Level FlightAware ADS-B
Wed 02:46:39 AM 34.5560 44.1090 337° Northwest 479 551 38,000  Level FlightAware ADS-B
Wed 02:47:24 AM 34.6500 44.0590 336° Northwest 478 550 38,000  Level FlightAware ADS-B
Wed 02:48:04 AM 34.7280 44.0180 337° Northwest 480 552 38,000  Level FlightAware ADS-B
Wed 02:48:49 AM 34.8210 43.9700 337° Northwest 484 557 38,000  Level FlightAware ADS-B
Wed 02:49:29 AM 34.9040 43.9260 337° Northwest 485 558 38,000  Level FlightAware ADS-B
Wed 02:50:09 AM 34.9860 43.8830 337° Northwest 487 560 38,000  Level FlightAware ADS-B
Wed 02:50:54 AM 35.0820 43.8320 337° Northwest 486 559 38,000  Level FlightAware ADS-B
Wed 02:51:29 AM 35.1520 43.7940 336° Northwest 488 562 38,000  Level FlightAware ADS-B
Wed 02:52:14 AM 35.2470 43.7440 337° Northwest 493 567 38,000  Level FlightAware ADS-B
Wed 02:52:54 AM 35.3280 43.7010 337° Northwest 495 570 38,000  Level FlightAware ADS-B
Wed 02:53:39 AM 35.4230 43.6500 336° Northwest 496 571 38,000  Level FlightAware ADS-B
Wed 02:54:24 AM 35.5220 43.5980 337° Northwest 496 571 38,000  Level FlightAware ADS-B
Wed 02:55:04 AM 35.6020 43.5550 336° Northwest 495 570 38,000  Level FlightAware ADS-B
Wed 02:55:49 AM 35.6990 43.5020 336° Northwest 495 570 38,000  Level FlightAware ADS-B
Wed 02:56:29 AM 35.7840 43.4570 337° Northwest 494 568 38,000  Level FlightAware ADS-B
Wed 02:57:09 AM 35.8640 43.4140 336° Northwest 495 570 38,000  Level FlightAware ADS-B
Wed 02:57:54 AM 35.9610 43.3610 336° Northwest 497 572 38,000  Level FlightAware ADS-B
Wed 02:58:34 AM 36.0440 43.3160 336° Northwest 498 573 38,000  Level FlightAware ADS-B
Wed 02:59:19 AM 36.1410 43.2640 337° Northwest 500 575 38,000  Level FlightAware ADS-B
Wed 02:59:59 AM 36.2250 43.2170 336° Northwest 500 575 38,000  Level FlightAware ADS-B
Wed 03:00:37 AM 36.3070 43.1720 336° Northwest 502 578 38,000  Level FlightAware ADS-B
Wed 03:01:22 AM 36.4000 43.1210 336° Northwest 502 578 38,000  Level FlightAware ADS-B
Wed 03:02:02 AM 36.4870 43.0730 336° Northwest 503 579 38,000  Level FlightAware ADS-B
Wed 03:02:47 AM 36.5810 43.0200 336° Northwest 501 577 38,000  Level FlightAware ADS-B
Wed 03:03:27 AM 36.6680 42.9720 336° Northwest 500 575 38,000  Level FlightAware ADS-B
Wed 03:04:07 AM 36.7490 42.9270 336° Northwest 499 574 38,000  Level FlightAware ADS-B
Wed 03:04:52 AM 36.8440 42.8740 336° Northwest 499 574 38,000  Level FlightAware ADS-B
Wed 03:05:32 AM 36.9290 42.8270 336° Northwest 499 574 38,000  Level FlightAware ADS-B
Wed 03:06:17 AM 37.0240 42.7750 336° Northwest 499 574 38,000  Level FlightAware ADS-B
Wed 03:06:47 AM 37.0890 42.7390 336° Northwest 497 572 38,000  Level FlightAware ADS-B
Wed 03:07:22 AM 37.1590 42.7000 336° Northwest 496 571 38,000  Level FlightAware ADS-B
Wed 03:07:52 AM 37.2220 42.6580 332° Northwest 494 568 38,000  Level FlightAware ADS-B
Wed 03:08:32 AM 37.2950 42.5940 325° Northwest 490 564 38,000  Level FlightAware ADS-B
Wed 03:09:12 AM 37.3650 42.5160 318° Northwest 489 563 38,000  Level FlightAware ADS-B
Wed 03:09:52 AM 37.4330 42.4380 318° Northwest 491 565 38,000  Level FlightAware ADS-B
Wed 03:10:37 AM 37.5070 42.3520 317° Northwest 488 562 38,000  Level FlightAware ADS-B
Wed 03:11:17 AM 37.5730 42.2760 318° Northwest 490 564 38,000  Level FlightAware ADS-B
Wed 03:11:57 AM 37.6390 42.1990 317° Northwest 490 564 38,000  Level FlightAware ADS-B
Wed 03:12:42 AM 37.7120 42.1130 317° Northwest 490 564 38,000  Level FlightAware ADS-B
Wed 03:13:22 AM 37.7810 42.0330 318° Northwest 491 565 38,000  Level FlightAware ADS-B
Wed 03:14:07 AM 37.8520 41.9440 315° West 490 564 38,000  Level FlightAware ADS-B
Wed 03:14:47 AM 37.9070 41.8490 306° West 486 559 38,000  Level FlightAware ADS-B
Wed 03:15:42 AM 37.9630 41.7100 297° West 479 551 38,000  Level FlightAware ADS-B
Wed 03:16:22 AM 37.9940 41.6130 292° West 477 549 38,000  Level FlightAware ADS-B
Wed 03:17:22 AM 38.0380 41.4670 291° West 477 549 38,000  Level FlightAware ADS-B
Wed 03:18:02 AM 38.0730 41.3570 292° West 475 547 38,000  Level FlightAware ADS-B
Wed 03:18:37 AM 38.1030 41.2590 291° West 474 545 38,000  Level FlightAware ADS-B
Wed 03:19:27 AM 38.1370 41.1470 291° West 474 545 38,000  Level FlightAware ADS-B
Wed 03:20:07 AM 38.1640 41.0580 291° West 474 545 38,000  Level FlightAware ADS-B
Wed 03:20:47 AM 38.1910 40.9700 291° West 474 545 38,000  Level FlightAware ADS-B
Wed 03:21:27 AM 38.2180 40.8810 291° West 474 545 38,000  Level FlightAware ADS-B
Wed 03:22:17 AM 38.2510 40.7700 291° West 474 545 38,000  Level FlightAware ADS-B
Wed 03:22:57 AM 38.2780 40.6820 291° West 474 545 38,000  Level FlightAware ADS-B
Wed 03:23:37 AM 38.3040 40.5930 290° West 474 545 38,000  Level FlightAware ADS-B
Wed 03:24:17 AM 38.3310 40.5040 291° West 474 545 38,000  Level FlightAware ADS-B
Wed 03:24:57 AM 38.3580 40.4150 291° West 474 545 38,000  Level FlightAware ADS-B
Wed 03:25:47 AM 38.3910 40.3040 291° West 474 545 38,000  Level FlightAware ADS-B
Wed 03:26:27 AM 38.4180 40.2160 291° West 474 545 38,000  Level FlightAware ADS-B
Wed 03:27:07 AM 38.4450 40.1270 291° West 474 545 38,000  Level FlightAware ADS-B
Wed 03:27:47 AM 38.4710 40.0380 290° West 474 545 38,000  Level FlightAware ADS-B
Wed 03:30:00 AM 38.6071 39.7773 304° West  Level Estimated
Wed 03:31:00 AM 38.6683 39.6593 304° West  Level Estimated
Wed 03:32:00 AM 38.7294 39.5412 304° West  Level Estimated
Wed 03:33:00 AM 38.7904 39.4229 303° West  Level Estimated
Wed 03:34:00 AM 38.8512 39.3043 303° West  Level Estimated
Wed 03:35:00 AM 38.9119 39.1856 303° West  Level Estimated
Wed 03:36:00 AM 38.9726 39.0666 303° West  Level Estimated
Wed 03:37:00 AM 39.0331 38.9474 303° West  Level Estimated
Wed 03:38:00 AM 39.0934 38.8281 303° West  Level Estimated
Wed 03:39:00 AM 39.1537 38.7085 303° West  Level Estimated
Wed 03:40:00 AM 39.2138 38.5888 303° West  Level Estimated
Wed 03:41:00 AM 39.2738 38.4688 303° West  Level Estimated
Wed 03:42:00 AM 39.3337 38.3486 303° West  Level Estimated
Wed 03:43:00 AM 39.3934 38.2282 303° West  Level Estimated
Wed 03:44:00 AM 39.4530 38.1076 303° West  Level Estimated
Wed 03:45:00 AM 39.5126 37.9868 303° West  Level Estimated
Wed 03:46:00 AM 39.5719 37.8658 303° West  Level Estimated
Wed 03:47:00 AM 39.6312 37.7446 302° West  Level Estimated
Wed 03:48:00 AM 39.6903 37.6232 302° West  Level Estimated
Wed 03:49:00 AM 39.7493 37.5016 302° West  Level Estimated
Wed 03:50:00 AM 39.8082 37.3797 302° West  Level Estimated
Wed 03:51:00 AM 39.8669 37.2577 302° West  Level Estimated
Wed 03:52:00 AM 39.9256 37.1354 302° West  Level Estimated
Wed 03:53:00 AM 39.9841 37.0130 302° West  Level Estimated
Wed 03:54:00 AM 40.0424 36.8903 302° West  Level Estimated
Wed 03:55:00 AM 40.1006 36.7674 302° West  Level Estimated
Wed 03:56:00 AM 40.1587 36.6443 302° West  Level Estimated
Wed 03:57:00 AM 40.2167 36.5210 302° West  Level Estimated
Wed 03:57:32 AM 39.5080 35.1090 302° West 452 520 38,000  Level FlightAware ADS-B
Wed 03:58:17 AM 39.5480 35.0040 296° West 451 519 38,000  Level FlightAware ADS-B
Wed 03:59:07 AM 39.5900 34.8910 296° West 451 519 38,000  Level FlightAware ADS-B
Wed 04:00:22 AM 39.5710 34.9430 115° Southeast 446 513 38,000  Level FlightAware ADS-B
Wed 04:01:02 AM 39.6950 34.6100 296° West 445 512 38,000  Level FlightAware ADS-B
Wed 04:01:47 AM 39.7350 34.5030 296° West 441 507 38,000  Level FlightAware ADS-B
Wed 04:02:42 AM 39.7870 34.3620 296° West 442 509 38,000  Level FlightAware ADS-B
Wed 04:03:22 AM 39.8220 34.2690 296° West 442 509 38,000  Level FlightAware ADS-B
Wed 04:03:57 AM 39.8530 34.1840 295° West 441 507 38,000  Level FlightAware ADS-B
Wed 04:04:47 AM 39.8970 34.0630 295° West 441 507 38,000  Level FlightAware ADS-B
Wed 04:05:27 AM 39.9320 33.9670 295° West 440 506 38,000  Level FlightAware ADS-B
Wed 04:06:12 AM 39.9690 33.8650 295° West 437 503 38,000  Level FlightAware ADS-B
Wed 04:06:52 AM 40.0060 33.7650 296° West 437 503 38,000  Level FlightAware ADS-B
Wed 04:07:37 AM 40.0440 33.6600 295° West 436 502 38,000  Level FlightAware ADS-B
Wed 04:08:17 AM 40.0790 33.5630 295° West 436 502 38,000  Level FlightAware ADS-B
Wed 04:08:57 AM 40.1130 33.4670 295° West 434 499 38,000  Level FlightAware ADS-B
Wed 04:09:42 AM 40.1490 33.3660 295° West 430 495 38,000  Level FlightAware ADS-B
Wed 04:10:22 AM 40.1840 33.2670 295° West 433 498 38,000  Level FlightAware ADS-B
Wed 04:11:02 AM 40.2240 33.1750 300° West 436 502 38,000  Level FlightAware ADS-B
Wed 04:11:42 AM 40.2750 33.0920 309° West 440 506 38,000  Level FlightAware ADS-B
Wed 04:12:32 AM 40.3490 33.0030 318° Northwest 443 510 38,000  Level FlightAware ADS-B
Wed 04:13:12 AM 40.4160 32.9380 324° Northwest 445 512 38,000  Level FlightAware ADS-B
Wed 04:13:57 AM 40.4900 32.8660 324° Northwest 449 517 38,000  Level FlightAware ADS-B
Wed 04:14:32 AM 40.5480 32.8110 324° Northwest 449 517 38,000  Level FlightAware ADS-B
Wed 04:15:17 AM 40.6250 32.7360 324° Northwest 452 520 38,000  Level FlightAware ADS-B
Wed 04:16:02 AM 40.7000 32.6630 324° Northwest 454 522 38,000  Level FlightAware ADS-B
Wed 04:16:42 AM 40.7680 32.5970 324° Northwest 454 522 38,000  Level FlightAware ADS-B
Wed 04:17:22 AM 40.8330 32.5330 323° Northwest 451 519 38,000  Level FlightAware ADS-B
Wed 04:18:07 AM 40.9090 32.4580 323° Northwest 451 519 38,000  Level FlightAware ADS-B
Wed 04:18:52 AM 40.9860 32.3830 324° Northwest 454 522 38,000  Level FlightAware ADS-B
Wed 04:19:22 AM 41.0340 32.3350 323° Northwest 453 521 38,000  Level FlightAware ADS-B
Wed 04:20:12 AM 41.1160 32.2550 324° Northwest 451 519 38,000  Level FlightAware ADS-B
Wed 04:20:57 AM 41.1920 32.1800 323° Northwest 450 518 38,000  Level FlightAware ADS-B
Wed 04:21:37 AM 41.2610 32.1110 323° Northwest 450 518 38,000  Level FlightAware ADS-B
Wed 04:22:17 AM 41.3250 32.0470 323° Northwest 443 510 38,000  Level FlightAware ADS-B
Wed 04:23:02 AM 41.3970 31.9750 323° Northwest 441 507 38,000  Level FlightAware ADS-B
Wed 04:23:42 AM 41.4660 31.9060 323° Northwest 442 509 38,000  Level FlightAware ADS-B
Wed 04:24:27 AM 41.5390 31.8330 323° Northwest 443 510 38,000  Level FlightAware ADS-B
Wed 04:25:02 AM 41.5970 31.7750 323° Northwest 444 511 38,000  Level FlightAware ADS-B
Wed 04:25:52 AM 41.6740 31.6950 322° Northwest 445 512 38,000  Level FlightAware ADS-B
Wed 04:26:32 AM 41.7290 31.6380 322° Northwest 445 512 38,000  Level FlightAware ADS-B
Wed 04:27:12 AM 41.7840 31.5800 322° Northwest 445 512 38,000  Level FlightAware ADS-B
Wed 04:27:52 AM 41.8390 31.5220 322° Northwest 445 512 38,000  Level FlightAware ADS-B
Wed 04:28:32 AM 41.8950 31.4640 322° Northwest 445 512 38,000  Level FlightAware ADS-B
Wed 04:29:22 AM 41.9640 31.3920 322° Northwest 445 512 38,000  Level FlightAware ADS-B
Wed 04:30:32 AM 42.1340 31.2270 324° Northwest 450 518 38,000  Level FlightAware ADS-B
Wed 04:31:12 AM 42.1960 31.1620 322° Northwest 450 518 38,000  Level FlightAware ADS-B
Wed 04:31:47 AM 42.2620 31.0950 323° Northwest 449 517 38,000  Level FlightAware ADS-B
Wed 04:32:37 AM 42.3430 31.0110 323° Northwest 447 514 38,000  Level FlightAware ADS-B
Wed 04:33:17 AM 42.4020 30.9490 322° Northwest 448 516 38,000  Level FlightAware ADS-B
Wed 04:34:02 AM 42.4690 30.8790 322° Northwest 448 516 38,000  Level FlightAware ADS-B
Wed 04:34:42 AM 42.5250 30.8200 322° Northwest 448 516 38,000  Level FlightAware ADS-B
Wed 04:35:37 AM 42.6310 30.7090 322° Northwest 449 517 38,000  Level FlightAware ADS-B
Wed 04:36:17 AM 42.6870 30.6500 322° Northwest 449 517 38,000  Level FlightAware ADS-B
Wed 04:37:02 AM 42.7510 30.5370 308° West 443 510 38,000  Level FlightAware ADS-B
Wed 04:37:42 AM 42.8090 30.4560 314° West 443 510 38,000  Level FlightAware ADS-B
Wed 04:38:17 AM 42.8640 30.3780 314° West 441 507 38,000  Level FlightAware ADS-B
Wed 04:39:07 AM 42.9290 30.2880 315° West 438 504 38,000  Level FlightAware ADS-B
Wed 04:39:42 AM 42.9850 30.2100 314° West 438 504 38,000  Level FlightAware ADS-B
Wed 04:40:27 AM 43.0410 30.1300 314° West 438 504 38,000  Level FlightAware ADS-B
Wed 04:41:07 AM 43.0890 30.0620 314° West 438 504 38,000  Level FlightAware ADS-B
Wed 04:41:57 AM 43.1480 29.9770 314° West 438 504 38,000  Level FlightAware ADS-B
Wed 04:42:37 AM 43.2290 29.8620 314° West 445 512 38,000  Level FlightAware ADS-B
Wed 04:43:17 AM 43.2860 29.7810 314° West 447 514 38,000  Level FlightAware ADS-B
Wed 04:44:02 AM 43.3470 29.6940 314° West 447 514 38,000  Level FlightAware ADS-B
Wed 04:44:57 AM 43.4280 29.5780 314° West 450 518 38,000  Level FlightAware ADS-B
Wed 04:45:32 AM 43.4800 29.5030 314° West 452 520 38,000  Level FlightAware ADS-B
Wed 04:46:22 AM 43.5490 29.4030 314° West 452 520 38,000  Level FlightAware ADS-B
Wed 04:46:57 AM 43.6000 29.3290 314° West 452 520 38,000  Level FlightAware ADS-B
Wed 04:47:37 AM 43.6510 29.2540 313° West 452 520 38,000  Level FlightAware ADS-B
Wed 04:48:17 AM 43.7170 29.1580 314° West 451 519 38,000  Level FlightAware ADS-B
Wed 04:49:07 AM 43.7840 29.0600 313° West 451 519 38,000  Level FlightAware ADS-B
Wed 04:50:02 AM 43.8610 28.9470 313° West 449 517 38,000  Level FlightAware ADS-B
Wed 04:50:47 AM 43.9310 28.8430 313° West 450 518 38,000  Level FlightAware ADS-B
Wed 04:51:27 AM 43.9860 28.7620 313° West 452 520 38,000  Level FlightAware ADS-B
Wed 04:52:12 AM 44.0500 28.6660 313° West 451 519 38,000  Level FlightAware ADS-B
Wed 04:53:07 AM 44.1270 28.5510 313° West 450 518 38,000  Level FlightAware ADS-B
Wed 04:53:47 AM 44.1870 28.4620 313° West 450 518 38,000  Level FlightAware ADS-B
Wed 04:54:27 AM 44.2460 28.3730 313° West 449 517 38,000  Level FlightAware ADS-B
Wed 04:55:12 AM 44.3060 28.2820 313° West 447 514 38,000  Level FlightAware ADS-B
Wed 04:55:52 AM 44.3600 28.2010 313° West 445 512 38,000  Level FlightAware ADS-B
Wed 04:56:27 AM 44.4100 28.1250 313° West 446 513 38,000  Level FlightAware ADS-B
Wed 04:57:17 AM 44.4770 28.0240 313° West 448 516 38,000  Level FlightAware ADS-B
Wed 04:57:57 AM 44.5360 27.9330 312° West 446 513 38,000  Level FlightAware ADS-B
Wed 04:58:42 AM 44.6010 27.8340 313° West 445 512 38,000  Level FlightAware ADS-B
Wed 04:59:22 AM 44.6580 27.7460 312° West 445 512 38,000  Level FlightAware ADS-B
Wed 05:00:07 AM 44.7160 27.6580 313° West 445 512 38,000  Level FlightAware ADS-B
Wed 05:01:02 AM 44.7890 27.5440 312° West 446 513 38,000  Level FlightAware ADS-B
Wed 05:01:47 AM 44.8560 27.4400 312° West 447 514 38,000  Level FlightAware ADS-B
Wed 05:02:37 AM 44.9180 27.3430 312° West 446 513 38,000  Level FlightAware ADS-B
Wed 05:03:22 AM 44.9870 27.2360 312° West 448 516 38,000  Level FlightAware ADS-B
Wed 05:04:07 AM 45.0470 27.1420 312° West 450 518 38,000  Level FlightAware ADS-B
Wed 05:04:47 AM 45.1030 27.0530 312° West 451 519 38,000  Level FlightAware ADS-B
Wed 05:05:42 AM 45.1820 26.9280 312° West 452 520 38,000  Level FlightAware ADS-B
Wed 05:06:27 AM 45.2400 26.8360 312° West 451 519 38,000  Level FlightAware ADS-B
Wed 05:07:17 AM 45.3090 26.7260 312° West 449 517 38,000  Level FlightAware ADS-B
Wed 05:07:57 AM 45.3700 26.6280 312° West 449 517 38,000  Level FlightAware ADS-B
Wed 05:08:42 AM 45.4300 26.5330 312° West 452 520 38,000  Level FlightAware ADS-B
Wed 05:09:57 AM 45.5310 26.3700 312° West 454 522 38,000  Level FlightAware ADS-B
Wed 05:10:37 AM 45.5900 26.2740 311° West 454 522 38,000  Level FlightAware ADS-B
Wed 05:11:17 AM 45.6500 26.1770 312° West 454 522 38,000  Level FlightAware ADS-B
Wed 05:12:02 AM 45.7120 26.0760 311° West 455 524 38,000  Level FlightAware ADS-B
Wed 05:12:37 AM 45.7620 25.9940 311° West 455 524 38,000  Level FlightAware ADS-B
Wed 05:13:17 AM 45.8150 25.9070 311° West 456 525 38,000  Level FlightAware ADS-B
Wed 05:14:07 AM 45.8800 25.7990 311° West 457 526 38,000  Level FlightAware ADS-B
Wed 05:14:52 AM 45.9440 25.6940 311° West 460 529 38,000  Level FlightAware ADS-B
Wed 05:15:32 AM 46.0030 25.5950 311° West 460 529 38,000  Level FlightAware ADS-B
Wed 05:16:12 AM 46.0580 25.5040 311° West 461 531 38,000  Level FlightAware ADS-B
Wed 05:16:52 AM 46.1160 25.4070 311° West 461 531 38,000  Level FlightAware ADS-B
Wed 05:17:37 AM 46.1750 25.3090 311° West 463 533 38,000  Level FlightAware ADS-B
Wed 05:18:17 AM 46.2310 25.2130 310° West 466 536 38,000  Level FlightAware ADS-B
Wed 05:18:57 AM 46.2870 25.1190 311° West 465 535 38,000  Level FlightAware ADS-B
Wed 05:19:37 AM 46.3420 25.0250 310° West 465 535 38,000  Level FlightAware ADS-B
Wed 05:20:22 AM 46.4010 24.9270 311° West 465 535 38,000  Level FlightAware ADS-B
Wed 05:20:57 AM 46.4540 24.8360 310° West 463 533 38,000  Level FlightAware ADS-B
Wed 05:21:47 AM 46.5210 24.7200 310° West 463 533 38,000  Level FlightAware ADS-B
Wed 05:22:32 AM 46.5870 24.6060 310° West 461 531 38,000  Level FlightAware ADS-B
Wed 05:23:12 AM 46.6430 24.5110 311° West 459 528 38,000  Level FlightAware ADS-B
Wed 05:23:47 AM 46.6890 24.4300 310° West 460 529 38,000  Level FlightAware ADS-B
Wed 05:24:37 AM 46.7540 24.3180 310° West 462 532 38,000  Level FlightAware ADS-B
Wed 05:25:17 AM 46.8100 24.2200 310° West 464 534 38,000  Level FlightAware ADS-B
Wed 05:26:02 AM 46.8710 24.1130 310° West 467 537 38,000  Level FlightAware ADS-B
Wed 05:26:42 AM 46.9270 24.0140 310° West 465 535 38,000  Level FlightAware ADS-B
Wed 05:27:22 AM 46.9790 23.9220 310° West 465 535 38,000  Level FlightAware ADS-B
Wed 05:28:07 AM 47.0390 23.8160 310° West 463 533 38,000  Level FlightAware ADS-B
Wed 05:28:47 AM 47.0940 23.7180 310° West 462 532 38,000  Level FlightAware ADS-B
Wed 05:29:32 AM 47.1580 23.6030 309° West 459 528 38,000  Level FlightAware ADS-B
Wed 05:30:12 AM 47.2090 23.5120 310° West 457 526 38,000  Level FlightAware ADS-B
Wed 05:30:52 AM 47.2650 23.4120 310° West 456 525 38,000  Level FlightAware ADS-B
Wed 05:31:37 AM 47.3120 23.3040 303° West 455 524 38,000  Level FlightAware ADS-B
Wed 05:32:12 AM 47.3560 23.2040 303° West 455 524 38,000  Level FlightAware ADS-B
Wed 05:32:57 AM 47.4030 23.0960 303° West 454 522 38,000  Level FlightAware ADS-B
Wed 05:33:42 AM 47.4580 22.9700 303° West 455 524 38,000  Level FlightAware ADS-B
Wed 05:34:22 AM 47.5040 22.8630 303° West 457 526 38,000  Level FlightAware ADS-B
Wed 05:35:07 AM 47.5530 22.7500 303° West 457 526 38,000  Level FlightAware ADS-B
Wed 05:35:47 AM 47.5990 22.6410 302° West 456 525 38,000  Level FlightAware ADS-B
Wed 05:36:32 AM 47.6500 22.5220 302° West 458 527 38,000  Level FlightAware ADS-B
Wed 05:37:12 AM 47.6950 22.4150 302° West 459 528 38,000  Level FlightAware ADS-B
Wed 05:37:57 AM 47.7450 22.2930 301° West 457 526 38,000  Level FlightAware ADS-B
Wed 05:38:37 AM 47.7900 22.1770 300° West 455 524 38,000  Level FlightAware ADS-B
Wed 05:39:17 AM 47.8320 22.0670 300° West 454 522 38,000  Level FlightAware ADS-B
Wed 05:39:57 AM 47.8740 21.9600 300° West 453 521 38,000  Level FlightAware ADS-B
Wed 05:40:42 AM 47.9210 21.8380 300° West 454 522 38,000  Level FlightAware ADS-B
Wed 05:41:22 AM 47.9620 21.7320 300° West 455 524 38,000  Level FlightAware ADS-B
Wed 05:42:07 AM 48.0100 21.6090 300° West 453 521 38,000  Level FlightAware ADS-B
Wed 05:42:47 AM 48.0520 21.4990 300° West 453 521 38,000  Level FlightAware ADS-B
Wed 05:43:32 AM 48.0970 21.3810 300° West 451 519 38,000  Level FlightAware ADS-B
Wed 05:44:12 AM 48.1380 21.2710 299° West 454 522 38,000  Level FlightAware ADS-B
Wed 05:44:57 AM 48.1860 21.1460 300° West 453 521 38,000  Level FlightAware ADS-B
Wed 05:45:37 AM 48.2270 21.0360 299° West 453 521 38,000  Level FlightAware ADS-B
Wed 05:46:17 AM 48.2680 20.9260 299° West 451 519 38,000  Level FlightAware ADS-B
Wed 05:47:02 AM 48.3120 20.8070 299° West 452 520 38,000  Level FlightAware ADS-B
Wed 05:47:42 AM 48.3530 20.6960 299° West 453 521 38,000  Level FlightAware ADS-B
Wed 05:48:22 AM 48.3890 20.6000 299° West 455 524 38,000  Level FlightAware ADS-B
Wed 05:48:57 AM 48.4270 20.4970 299° West 457 526 38,000  Level FlightAware ADS-B
Wed 05:49:52 AM 48.4840 20.3420 299° West 454 522 38,000  Level FlightAware ADS-B
Wed 05:50:32 AM 48.5240 20.2300 298° West 453 521 38,000  Level FlightAware ADS-B
Wed 05:51:12 AM 48.5640 20.1220 299° West 450 518 38,000  Level FlightAware ADS-B
Wed 05:51:57 AM 48.6100 19.9940 299° West 451 519 38,000  Level FlightAware ADS-B
Wed 05:52:37 AM 48.6500 19.8840 299° West 452 520 38,000  Level FlightAware ADS-B
Wed 05:53:22 AM 48.6950 19.7560 298° West 453 521 38,000  Level FlightAware ADS-B
Wed 05:54:02 AM 48.7350 19.6440 298° West 453 521 38,000  Level FlightAware ADS-B
Wed 05:54:47 AM 48.7810 19.5150 298° West 455 524 38,000  Level FlightAware ADS-B
Wed 05:55:27 AM 48.8200 19.4040 298° West 456 525 38,000  Level FlightAware ADS-B
Wed 05:56:07 AM 48.8590 19.2880 297° West 453 521 38,000  Level FlightAware ADS-B
Wed 05:56:47 AM 48.8840 19.1670 287° West 452 520 38,000  Level FlightAware ADS-B
Wed 05:57:32 AM 48.9130 19.0320 288° West 450 518 38,000  Level FlightAware ADS-B
Wed 05:58:12 AM 48.9380 18.9110 288° West 452 520 38,000  Level FlightAware ADS-B
Wed 05:58:57 AM 48.9650 18.7750 287° West 454 522 38,000  Level FlightAware ADS-B
Wed 05:59:37 AM 48.9900 18.6530 287° West 450 518 38,000  Level FlightAware ADS-B
Wed 06:00:22 AM 49.0180 18.5170 287° West 445 512 38,000  Level FlightAware ADS-B
Wed 06:01:02 AM 49.0420 18.3970 287° West 445 512 38,000  Level FlightAware ADS-B
Wed 06:01:42 AM 49.0660 18.2770 287° West 447 514 38,000  Level FlightAware ADS-B
Wed 06:02:27 AM 49.0920 18.1440 287° West 448 516 38,000  Level FlightAware ADS-B
Wed 06:03:07 AM 49.1170 18.0210 287° West 448 516 38,000  Level FlightAware ADS-B
Wed 06:03:52 AM 49.1430 17.8860 286° West 450 518 38,000  Level FlightAware ADS-B
Wed 06:04:32 AM 49.1670 17.7610 286° West 452 520 38,000  Level FlightAware ADS-B
Wed 06:05:02 AM 49.1850 17.6710 287° West 452 520 38,000  Level FlightAware ADS-B
Wed 06:05:42 AM 49.2090 17.5480 287° West 451 519 38,000  Level FlightAware ADS-B
Wed 06:06:27 AM 49.2350 17.4120 286° West 447 514 38,000  Level FlightAware ADS-B
Wed 06:07:07 AM 49.2580 17.2910 286° West 447 514 38,000  Level FlightAware ADS-B
Wed 06:07:47 AM 49.2810 17.1670 286° West 449 517 38,000  Level FlightAware ADS-B
Wed 06:08:32 AM 49.3070 17.0290 286° West 450 518 38,000  Level FlightAware ADS-B
Wed 06:09:12 AM 49.3300 16.9060 286° West 451 519 38,000  Level FlightAware ADS-B
Wed 06:09:57 AM 49.3560 16.7660 286° West 451 519 38,000  Level FlightAware ADS-B
Wed 06:10:37 AM 49.3790 16.6420 286° West 450 518 38,000  Level FlightAware ADS-B
Wed 06:11:12 AM 49.3960 16.5440 285° West 449 517 38,000  Level FlightAware ADS-B
Wed 06:12:02 AM 49.4260 16.3810 286° West 449 517 38,000  Level FlightAware ADS-B
Wed 06:12:42 AM 49.4480 16.2600 286° West 450 518 38,000  Level FlightAware ADS-B
Wed 06:13:27 AM 49.4730 16.1160 285° West 447 514 38,000  Level FlightAware ADS-B
Wed 06:14:07 AM 49.4950 15.9930 285° West 448 516 38,000  Level FlightAware ADS-B
Wed 06:14:47 AM 49.5170 15.8700 285° West 448 516 38,000  Level FlightAware ADS-B
Wed 06:15:32 AM 49.5400 15.7340 285° West 447 514 38,000  Level FlightAware ADS-B
Wed 06:16:12 AM 49.5600 15.6210 285° West 448 516 38,000  Level FlightAware ADS-B
Wed 06:16:57 AM 49.5850 15.4730 285° West 447 514 38,000  Level FlightAware ADS-B
Wed 06:17:37 AM 49.6060 15.3540 285° West 447 514 38,000  Level FlightAware ADS-B
Wed 06:18:17 AM 49.6270 15.2320 285° West 446 513 38,000  Level FlightAware ADS-B
Wed 06:19:02 AM 49.6500 15.0950 285° West 446 513 38,000  Level FlightAware ADS-B
Wed 06:19:42 AM 49.6700 14.9740 284° West 446 513 38,000  Level FlightAware ADS-B
Wed 06:20:27 AM 49.6940 14.8280 284° West 447 514 38,000  Level FlightAware ADS-B
Wed 06:21:07 AM 49.7150 14.7020 284° West 447 514 38,000  Level FlightAware ADS-B
Wed 06:21:47 AM 49.7350 14.5780 284° West 447 514 38,000  Level FlightAware ADS-B
Wed 06:22:32 AM 49.7570 14.4440 284° West 446 513 38,000  Level FlightAware ADS-B
Wed 06:23:12 AM 49.7760 14.3200 283° West 444 511 38,000  Level FlightAware ADS-B
Wed 06:23:57 AM 49.7990 14.1820 285° West 441 507 38,000  Level FlightAware ADS-B
Wed 06:24:37 AM 49.8190 14.0550 284° West 440 506 38,000  Level FlightAware ADS-B
Wed 06:25:17 AM 49.8370 13.9390 284° West 439 505 38,000  Level FlightAware ADS-B
Wed 06:26:02 AM 49.8580 13.8000 283° West 440 506 38,000  Level FlightAware ADS-B
Wed 06:26:42 AM 49.8770 13.6780 284° West 440 506 38,000  Level FlightAware ADS-B
Wed 06:27:27 AM 49.8990 13.5370 284° West 442 509 38,000  Level FlightAware ADS-B
Wed 06:28:07 AM 49.9170 13.4190 283° West 439 505 38,000  Level FlightAware ADS-B
Wed 06:28:47 AM 49.9360 13.2930 283° West 437 503 38,000  Level FlightAware ADS-B
Wed 06:29:32 AM 49.9560 13.1570 283° West 439 505 38,000  Level FlightAware ADS-B
Wed 06:30:07 AM 49.9720 13.0510 283° West 441 507 38,000  Level FlightAware ADS-B
Wed 06:30:57 AM 49.9940 12.8990 283° West 439 505 38,000  Level FlightAware ADS-B
Wed 06:31:37 AM 50.0130 12.7700 283° West 438 504 38,000  Level FlightAware ADS-B
Wed 06:32:22 AM 50.0310 12.6440 283° West 440 506 38,000  Level FlightAware ADS-B
Wed 06:33:02 AM 50.0380 12.5090 275° West 443 510 38,000  Level FlightAware ADS-B
Wed 06:33:42 AM 50.0400 12.3810 271° West 441 507 38,000  Level FlightAware ADS-B
Wed 06:34:22 AM 50.0430 12.2620 272° West 439 505 38,000  Level FlightAware ADS-B
Wed 06:35:02 AM 50.0460 12.1340 272° West 440 506 38,000  Level FlightAware ADS-B
Wed 06:35:52 AM 50.0480 11.9810 271° West 437 503 38,000  Level FlightAware ADS-B
Wed 06:36:32 AM 50.0510 11.8450 272° West 440 506 38,000  Level FlightAware ADS-B
Wed 06:37:07 AM 50.0530 11.7390 272° West 440 506 38,000  Level FlightAware ADS-B
Wed 06:37:47 AM 50.0550 11.6060 271° West 435 501 38,000  Level FlightAware ADS-B
Wed 06:38:37 AM 50.0570 11.4560 271° West 433 498 38,000  Level FlightAware ADS-B
Wed 06:39:22 AM 50.0590 11.3200 271° West 435 501 38,000  Level FlightAware ADS-B
Wed 06:39:52 AM 50.0600 11.2210 271° West 437 503 38,000  Level FlightAware ADS-B
Wed 06:40:42 AM 50.0620 11.0640 271° West 438 504 38,000  Level FlightAware ADS-B
Wed 06:41:27 AM 50.0630 10.9280 271° West 435 501 38,000  Level FlightAware ADS-B
Wed 06:42:07 AM 50.0640 10.8010 271° West 432 497 38,000  Level FlightAware ADS-B
Wed 06:42:47 AM 50.0650 10.6790 271° West 431 496 38,000  Level FlightAware ADS-B
Wed 06:43:32 AM 50.0660 10.5380 271° West 433 498 38,000  Level FlightAware ADS-B
Wed 06:44:12 AM 50.0660 10.4150 270° West 433 498 38,000  Level FlightAware ADS-B
Wed 06:44:57 AM 50.0670 10.2920 271° West 431 496 38,000  Level FlightAware ADS-B
Wed 06:45:37 AM 50.0670 10.1510 270° West 432 497 38,000  Level FlightAware ADS-B
Wed 06:46:17 AM 50.0680 10.0250 271° West 434 499 38,000  Level FlightAware ADS-B
Wed 06:46:52 AM 50.0680 9.9270 270° West 434 499 38,000  Level FlightAware ADS-B
Wed 06:47:42 AM 50.0680 9.7690 270° West 434 499 38,000  Level FlightAware ADS-B
Wed 06:48:42 AM 50.0670 9.5740 270° West 434 499 38,000  Level FlightAware ADS-B
Wed 06:49:22 AM 50.0670 9.4560 270° West 435 501 38,000  Level FlightAware ADS-B
Wed 06:50:02 AM 50.0650 9.3340 269° West 435 501 38,000  Level FlightAware ADS-B
Wed 06:50:32 AM 50.0640 9.2420 269° West 432 497 38,000  Level FlightAware ADS-B
Wed 06:51:17 AM 50.0620 9.1000 269° West 430 495 38,000  Level FlightAware ADS-B
Wed 06:51:57 AM 50.0600 8.9830 269° West 432 497 38,000  Level FlightAware ADS-B
Wed 06:52:42 AM 50.0570 8.8370 268° West 431 496 38,000  Level FlightAware ADS-B
Wed 06:53:22 AM 50.0550 8.7140 269° West 428 493 38,000  Level FlightAware ADS-B
Wed 06:54:07 AM 50.0530 8.5880 269° West 425 489 38,000  Level FlightAware ADS-B
Wed 06:54:47 AM 50.0520 8.4550 269° West 424 488 38,000  Level FlightAware ADS-B
Wed 06:55:27 AM 50.0460 8.3330 266° West 425 489 38,000  Level FlightAware ADS-B
Wed 06:56:12 AM 50.0280 8.2050 258° West 428 493 38,000  Level FlightAware ADS-B
Wed 06:56:52 AM 50.0110 8.0790 258° West 428 493 38,000  Level FlightAware ADS-B
Wed 06:57:37 AM 49.9930 7.9430 258° West 426 490 38,000  Level FlightAware ADS-B
Wed 06:58:17 AM 49.9780 7.8260 259° West 424 488 38,000  Level FlightAware ADS-B
Wed 06:58:57 AM 49.9620 7.7090 258° West 423 487 38,000  Level FlightAware ADS-B
Wed 06:59:42 AM 49.9430 7.5700 258° West 424 488 38,000  Level FlightAware ADS-B
Wed 07:00:22 AM 49.9260 7.4510 258° West 425 489 38,000  Level FlightAware ADS-B
Wed 07:01:07 AM 49.9070 7.3170 258° West 426 490 38,000  Level FlightAware ADS-B
Wed 07:01:47 AM 49.8910 7.2030 258° West 428 493 38,000  Level FlightAware ADS-B
Wed 07:02:27 AM 49.8740 7.0790 258° West 428 493 38,000  Level FlightAware ADS-B
Wed 07:03:12 AM 49.8550 6.9500 257° West 430 495 38,000 -282 Level FlightAware ADS-B
Wed 07:03:52 AM 49.8370 6.8220 258° West 424 488 37,600 -750 Descending FlightAware ADS-B
Wed 07:04:32 AM 49.8200 6.7080 257° West 420 483 37,000 -900 Descending FlightAware ADS-B
Wed 07:05:12 AM 49.8030 6.5880 258° West 411 473 36,400 -706 Descending FlightAware ADS-B
Wed 07:05:57 AM 49.7850 6.4670 257° West 410 472 36,000 -282 Descending FlightAware ADS-B
Wed 07:06:37 AM 49.7660 6.3430 257° West 410 472 36,000  Level FlightAware ADS-B
Wed 07:07:22 AM 49.7480 6.2190 257° West 408 470 36,000  Level FlightAware ADS-B
Wed 07:08:02 AM 49.7300 6.1010 257° West 409 471 36,000  Level FlightAware ADS-B
Wed 07:08:47 AM 49.7110 5.9790 257° West 413 475 36,000 -353 Level FlightAware ADS-B
Wed 07:09:27 AM 49.6930 5.8590 257° West 412 474 35,500 -1,341 Descending FlightAware ADS-B
Wed 07:10:12 AM 49.6740 5.7350 257° West 410 472 34,100 -1,906 Descending FlightAware ADS-B
Wed 07:10:52 AM 49.6560 5.6210 256° West 398 458 32,800 -2,025 Descending FlightAware ADS-B
Wed 07:11:32 AM 49.6390 5.5100 257° West 388 447 31,400 -1,624 Descending FlightAware ADS-B
Wed 07:12:17 AM 49.6200 5.3910 256° West 384 442 30,500 -1,200 Descending FlightAware ADS-B
Wed 07:12:47 AM 49.6130 5.3020 263° West 373 429 29,900 -1,108 Descending FlightAware ADS-B
Wed 07:13:22 AM 49.6050 5.2130 262° West 372 428 29,300 -975 Descending FlightAware ADS-B
Wed 07:14:07 AM 49.5950 5.1040 262° West 369 425 28,600 -1,200 Descending FlightAware ADS-B
Wed 07:15:02 AM 49.5810 4.9610 261° West 366 421 27,300 -1,620 Descending FlightAware ADS-B
Wed 07:15:47 AM 49.5710 4.8460 262° West 362 417 25,900 -1,781 Descending FlightAware ADS-B
Wed 07:17:37 AM 49.5430 4.5550 262° West 358 412 22,700 -1,720 Descending FlightAware ADS-B
Wed 07:18:17 AM 49.5330 4.4550 261° West 354 407 21,600 -1,694 Descending FlightAware ADS-B
Wed 07:19:02 AM 49.5220 4.3440 261° West 347 399 20,300 -1,765 Descending FlightAware ADS-B
Wed 07:19:42 AM 49.5130 4.2430 262° West 344 396 19,100 -1,694 Descending FlightAware ADS-B
Wed 07:20:27 AM 49.5020 4.1370 261° West 340 391 17,900 -1,624 Descending FlightAware ADS-B
Wed 07:21:07 AM 49.4920 4.0430 261° West 335 386 16,800 -1,650 Descending FlightAware ADS-B
Wed 07:21:47 AM 49.4830 3.9490 262° West 335 386 15,700 -1,624 Descending FlightAware ADS-B
Wed 07:22:32 AM 49.4720 3.8420 261° West 333 383 14,500 -1,553 Descending FlightAware ADS-B
Wed 07:23:12 AM 49.4630 3.7550 261° West 329 379 13,500 -1,482 Descending FlightAware ADS-B
Wed 07:23:57 AM 49.4520 3.6490 261° West 325 374 12,400 -1,286 Descending FlightAware ADS-B
Wed 07:24:22 AM 49.4410 3.5930 253° West 314 361 12,000 -750 Descending FlightAware ADS-B
Wed 07:24:37 AM 49.4290 3.5730 227° Southwest 312 359 11,900 -545 Descending FlightAware ADS-B
Wed 07:25:17 AM 49.3820 3.5220 215° Southwest 285 328 11,500 -635 Descending FlightAware ADS-B
Wed 07:26:02 AM 49.3330 3.4720 214° Southwest 270 311 11,000 -1,059 Descending FlightAware ADS-B
Wed 07:26:42 AM 49.2940 3.4300 215° Southwest 274 315 10,000 -1,418 Descending FlightAware ADS-B
Wed 07:26:57 AM 49.2770 3.4130 213° Southwest 275 316 9,700 -1,467 Descending FlightAware ADS-B
Wed 07:27:27 AM 49.2450 3.3790 215° Southwest 272 313 8,900 -1,636 Descending FlightAware ADS-B
Wed 07:27:52 AM 49.2200 3.3520 215° Southwest 260 299 8,200 -1,527 Descending FlightAware ADS-B
Wed 07:28:22 AM 49.1910 3.3190 217° Southwest 262 302 7,500 -1,333 Descending FlightAware ADS-B
Wed 07:28:37 AM 49.1780 3.3030 219° Southwest 260 299 7,200 -1,200 Descending FlightAware ADS-B
Wed 07:29:02 AM 49.1570 3.2670 228° Southwest 252 290 6,700 -873 Descending FlightAware ADS-B
Wed 07:29:32 AM 49.1330 3.2280 227° Southwest 247 284 6,400 -500 Descending FlightAware ADS-B
Wed 07:30:02 AM 49.1100 3.1890 228° Southwest 246 283 6,200 -436 Descending FlightAware ADS-B
Wed 07:30:27 AM 49.0920 3.1590 228° Southwest 247 284 6,000 -545 Descending FlightAware ADS-B
Wed 07:30:57 AM 49.0690 3.1200 228° Southwest 243 280 5,700 -655 Descending FlightAware ADS-B
Wed 07:31:22 AM 49.0490 3.0880 226° Southwest 240 276 5,400 -655 Descending FlightAware ADS-B
Wed 07:31:52 AM 49.0270 3.0500 229° Southwest 244 281 5,100 -533 Descending FlightAware ADS-B
Wed 07:32:07 AM 49.0190 3.0290 240° Southwest 238 274 5,000 -400 Descending FlightAware ADS-B
Wed 07:32:22 AM 49.0160 3.0040 260° West 228 262 4,900 -300 Descending FlightAware ADS-B
Wed 07:32:47 AM 49.0140 2.9660 265° West 214 246 4,800 -327 Descending FlightAware ADS-B
Wed 07:33:17 AM 49.0120 2.9240 266° West 204 235 4,600 -545 Descending FlightAware ADS-B
Wed 07:33:42 AM 49.0100 2.8890 265° West 197 227 4,300 -900 Descending FlightAware ADS-B
Wed 07:33:57 AM 49.0090 2.8680 266° West 196 226 4,000 -1,067 Descending FlightAware ADS-B
Wed 07:34:27 AM 49.0070 2.8280 266° West 188 216 3,500 -1,091 Descending FlightAware ADS-B
Wed 07:34:52 AM 49.0050 2.7930 265° West 181 208 3,000 -1,091 Descending FlightAware ADS-B
Wed 07:35:22 AM 49.0030 2.7570 265° West 167 192 2,500 -900 Descending FlightAware ADS-B
Wed 07:35:52 AM 49.0010 2.7240 265° West 148 170 2,100 -764 Descending FlightAware ADS-B
Wed 07:36:17 AM 49.0000 2.7030 266° West 130 150 1,800 -735 Descending FlightAware ADS-B
Wed 07:36:41 AM 48.9987 2.6753 266° West 132 152 1,500 -789 Descending FlightAware ADS-B
Wed 07:36:55 AM 48.9981 2.6632 266° West 130 150 1,300 -692 Descending FlightAware ADS-B
Wed 07:37:07 AM 48.9975 2.6520 265° West 130 150 1,200 -667 Descending FlightAware ADS-B
Wed 07:37:22 AM 48.9967 2.6377 265° West 131 151 1,000 -720 Descending FlightAware ADS-B
Wed 07:37:32 AM 48.9963 2.6288 266° West 132 152 900 -720 Descending FlightAware ADS-B
Wed 07:37:47 AM 48.9955 2.6151 265° West 131 151 700 -800 Descending FlightAware ADS-B

Login

Don't have an account? Register now (free) for customized features, flight alerts, and more!